sensor_id;sensor_type;location;lat;lon;timestamp;P1;durP1;ratioP1;P2;durP2;ratioP2
14760;SDS011;7472;45.396;5.272;2023-12-20T00:01:02;7.68;;;5.88;;
14760;SDS011;7472;45.396;5.272;2023-12-20T00:03:29;7.70;;;5.72;;
14760;SDS011;7472;45.396;5.272;2023-12-20T00:05:56;8.05;;;5.68;;
14760;SDS011;7472;45.396;5.272;2023-12-20T00:08:24;6.30;;;4.70;;
14760;SDS011;7472;45.396;5.272;2023-12-20T00:10:51;6.35;;;4.72;;
14760;SDS011;7472;45.396;5.272;2023-12-20T00:13:18;5.90;;;5.03;;
14760;SDS011;7472;45.396;5.272;2023-12-20T00:15:46;6.43;;;4.82;;
14760;SDS011;7472;45.396;5.272;2023-12-20T00:18:15;8.10;;;5.70;;
14760;SDS011;7472;45.396;5.272;2023-12-20T00:20:42;7.70;;;5.70;;
14760;SDS011;7472;45.396;5.272;2023-12-20T00:23:09;9.98;;;6.30;;
14760;SDS011;7472;45.396;5.272;2023-12-20T00:25:37;6.05;;;5.40;;
14760;SDS011;7472;45.396;5.272;2023-12-20T00:28:04;7.93;;;6.65;;
14760;SDS011;7472;45.396;5.272;2023-12-20T00:30:31;10.05;;;8.02;;
14760;SDS011;7472;45.396;5.272;2023-12-20T00:32:59;11.98;;;9.10;;
14760;SDS011;7472;45.396;5.272;2023-12-20T00:35:27;11.70;;;9.45;;
14760;SDS011;7472;45.396;5.272;2023-12-20T00:37:55;15.38;;;10.70;;
14760;SDS011;7472;45.396;5.272;2023-12-20T00:40:22;19.33;;;14.20;;
14760;SDS011;7472;45.396;5.272;2023-12-20T00:42:49;16.60;;;12.90;;
14760;SDS011;7472;45.396;5.272;2023-12-20T00:45:17;14.80;;;12.45;;
14760;SDS011;7472;45.396;5.272;2023-12-20T00:47:44;21.48;;;13.18;;
14760;SDS011;7472;45.396;5.272;2023-12-20T00:50:12;14.38;;;12.82;;
14760;SDS011;7472;45.396;5.272;2023-12-20T00:52:40;15.43;;;12.52;;
14760;SDS011;7472;45.396;5.272;2023-12-20T00:55:07;15.27;;;10.45;;
14760;SDS011;7472;45.396;5.272;2023-12-20T00:57:34;11.50;;;8.88;;
14760;SDS011;7472;45.396;5.272;2023-12-20T01:00:02;11.60;;;8.65;;
14760;SDS011;7472;45.396;5.272;2023-12-20T01:02:30;10.50;;;7.10;;
14760;SDS011;7472;45.396;5.272;2023-12-20T01:04:57;10.80;;;8.00;;
14760;SDS011;7472;45.396;5.272;2023-12-20T01:07:24;10.25;;;6.85;;
14760;SDS011;7472;45.396;5.272;2023-12-20T01:09:57;9.60;;;7.10;;
14760;SDS011;7472;45.396;5.272;2023-12-20T01:12:24;10.23;;;7.35;;
14760;SDS011;7472;45.396;5.272;2023-12-20T01:14:51;9.38;;;6.85;;
14760;SDS011;7472;45.396;5.272;2023-12-20T01:17:23;7.85;;;6.32;;
14760;SDS011;7472;45.396;5.272;2023-12-20T01:19:51;10.95;;;6.95;;
14760;SDS011;7472;45.396;5.272;2023-12-20T01:22:18;13.05;;;7.32;;
14760;SDS011;7472;45.396;5.272;2023-12-20T01:24:46;11.10;;;7.68;;
14760;SDS011;7472;45.396;5.272;2023-12-20T01:27:14;10.77;;;6.68;;
14760;SDS011;7472;45.396;5.272;2023-12-20T01:29:42;9.02;;;6.38;;
14760;SDS011;7472;45.396;5.272;2023-12-20T01:32:11;9.70;;;6.97;;
14760;SDS011;7472;45.396;5.272;2023-12-20T01:34:39;9.48;;;6.80;;
14760;SDS011;7472;45.396;5.272;2023-12-20T01:37:06;10.00;;;7.13;;
14760;SDS011;7472;45.396;5.272;2023-12-20T01:39:33;11.38;;;7.43;;
14760;SDS011;7472;45.396;5.272;2023-12-20T01:42:00;9.75;;;6.32;;
14760;SDS011;7472;45.396;5.272;2023-12-20T01:44:29;18.08;;;13.57;;
14760;SDS011;7472;45.396;5.272;2023-12-20T01:46:56;18.08;;;13.00;;
14760;SDS011;7472;45.396;5.272;2023-12-20T01:49:26;17.45;;;13.73;;
14760;SDS011;7472;45.396;5.272;2023-12-20T01:51:53;17.40;;;13.65;;
14760;SDS011;7472;45.396;5.272;2023-12-20T01:54:21;18.95;;;15.00;;
14760;SDS011;7472;45.396;5.272;2023-12-20T01:56:48;14.90;;;13.07;;
14760;SDS011;7472;45.396;5.272;2023-12-20T01:59:16;20.55;;;14.75;;
14760;SDS011;7472;45.396;5.272;2023-12-20T02:01:46;18.30;;;14.30;;
14760;SDS011;7472;45.396;5.272;2023-12-20T02:04:13;20.50;;;15.10;;
14760;SDS011;7472;45.396;5.272;2023-12-20T02:06:41;20.10;;;14.63;;
14760;SDS011;7472;45.396;5.272;2023-12-20T02:09:09;19.48;;;14.82;;
14760;SDS011;7472;45.396;5.272;2023-12-20T02:11:36;18.30;;;15.30;;
14760;SDS011;7472;45.396;5.272;2023-12-20T02:14:04;20.85;;;15.60;;
14760;SDS011;7472;45.396;5.272;2023-12-20T02:16:31;17.65;;;13.52;;
14760;SDS011;7472;45.396;5.272;2023-12-20T02:19:00;16.35;;;13.77;;
14760;SDS011;7472;45.396;5.272;2023-12-20T02:21:32;19.35;;;15.25;;
14760;SDS011;7472;45.396;5.272;2023-12-20T02:24:00;21.13;;;15.70;;
14760;SDS011;7472;45.396;5.272;2023-12-20T02:26:28;17.58;;;12.95;;
14760;SDS011;7472;45.396;5.272;2023-12-20T02:28:55;19.70;;;14.15;;
14760;SDS011;7472;45.396;5.272;2023-12-20T02:31:23;20.58;;;14.63;;
14760;SDS011;7472;45.396;5.272;2023-12-20T02:33:50;14.23;;;11.77;;
14760;SDS011;7472;45.396;5.272;2023-12-20T02:36:17;13.30;;;10.32;;
14760;SDS011;7472;45.396;5.272;2023-12-20T02:38:46;8.40;;;6.13;;
14760;SDS011;7472;45.396;5.272;2023-12-20T02:41:15;7.78;;;5.28;;
14760;SDS011;7472;45.396;5.272;2023-12-20T02:43:43;6.90;;;5.60;;
14760;SDS011;7472;45.396;5.272;2023-12-20T02:46:10;6.32;;;5.45;;
14760;SDS011;7472;45.396;5.272;2023-12-20T02:48:38;5.80;;;4.85;;
14760;SDS011;7472;45.396;5.272;2023-12-20T02:51:06;9.10;;;6.05;;
14760;SDS011;7472;45.396;5.272;2023-12-20T02:53:33;7.55;;;6.07;;
14760;SDS011;7472;45.396;5.272;2023-12-20T02:56:02;5.20;;;4.30;;
14760;SDS011;7472;45.396;5.272;2023-12-20T02:58:29;7.45;;;5.38;;
14760;SDS011;7472;45.396;5.272;2023-12-20T03:00:57;7.18;;;4.82;;
14760;SDS011;7472;45.396;5.272;2023-12-20T03:03:24;7.22;;;5.10;;
14760;SDS011;7472;45.396;5.272;2023-12-20T03:05:52;8.05;;;5.03;;
14760;SDS011;7472;45.396;5.272;2023-12-20T03:08:19;7.80;;;5.63;;
14760;SDS011;7472;45.396;5.272;2023-12-20T03:10:46;8.35;;;5.13;;
14760;SDS011;7472;45.396;5.272;2023-12-20T03:13:15;9.15;;;5.22;;
14760;SDS011;7472;45.396;5.272;2023-12-20T03:15:43;8.23;;;4.22;;
14760;SDS011;7472;45.396;5.272;2023-12-20T03:18:10;6.65;;;4.63;;
14760;SDS011;7472;45.396;5.272;2023-12-20T03:20:37;5.97;;;4.78;;
14760;SDS011;7472;45.396;5.272;2023-12-20T03:23:06;6.03;;;4.85;;
14760;SDS011;7472;45.396;5.272;2023-12-20T03:25:33;7.78;;;4.63;;
14760;SDS011;7472;45.396;5.272;2023-12-20T03:28:01;5.50;;;4.68;;
14760;SDS011;7472;45.396;5.272;2023-12-20T03:30:30;6.30;;;4.32;;
14760;SDS011;7472;45.396;5.272;2023-12-20T03:32:57;5.82;;;4.47;;
14760;SDS011;7472;45.396;5.272;2023-12-20T03:35:24;8.70;;;5.68;;
14760;SDS011;7472;45.396;5.272;2023-12-20T03:37:51;7.28;;;4.72;;
14760;SDS011;7472;45.396;5.272;2023-12-20T03:40:19;6.50;;;4.93;;
14760;SDS011;7472;45.396;5.272;2023-12-20T03:42:47;6.53;;;4.68;;
14760;SDS011;7472;45.396;5.272;2023-12-20T03:45:14;6.00;;;4.57;;
14760;SDS011;7472;45.396;5.272;2023-12-20T03:47:43;6.35;;;5.38;;
14760;SDS011;7472;45.396;5.272;2023-12-20T03:50:10;9.70;;;7.78;;
14760;SDS011;7472;45.396;5.272;2023-12-20T03:52:38;9.18;;;6.90;;
14760;SDS011;7472;45.396;5.272;2023-12-20T03:55:05;16.92;;;12.50;;
14760;SDS011;7472;45.396;5.272;2023-12-20T03:57:33;15.40;;;13.20;;
14760;SDS011;7472;45.396;5.272;2023-12-20T04:00:00;18.40;;;14.70;;
14760;SDS011;7472;45.396;5.272;2023-12-20T04:02:28;18.63;;;15.00;;
14760;SDS011;7472;45.396;5.272;2023-12-20T04:04:57;16.50;;;14.30;;
14760;SDS011;7472;45.396;5.272;2023-12-20T04:07:25;18.70;;;14.85;;
14760;SDS011;7472;45.396;5.272;2023-12-20T04:09:52;16.92;;;13.25;;
14760;SDS011;7472;45.396;5.272;2023-12-20T04:12:19;17.38;;;13.18;;
14760;SDS011;7472;45.396;5.272;2023-12-20T04:14:47;13.00;;;9.90;;
14760;SDS011;7472;45.396;5.272;2023-12-20T04:17:14;11.25;;;9.23;;
14760;SDS011;7472;45.396;5.272;2023-12-20T04:19:42;11.75;;;8.73;;
14760;SDS011;7472;45.396;5.272;2023-12-20T04:22:10;11.45;;;8.80;;
14760;SDS011;7472;45.396;5.272;2023-12-20T04:24:38;7.40;;;6.10;;
14760;SDS011;7472;45.396;5.272;2023-12-20T04:27:07;9.32;;;6.95;;
14760;SDS011;7472;45.396;5.272;2023-12-20T04:29:34;6.97;;;5.65;;
14760;SDS011;7472;45.396;5.272;2023-12-20T04:32:02;8.82;;;7.47;;
14760;SDS011;7472;45.396;5.272;2023-12-20T04:34:29;13.50;;;11.02;;
14760;SDS011;7472;45.396;5.272;2023-12-20T04:36:56;10.88;;;7.47;;
14760;SDS011;7472;45.396;5.272;2023-12-20T04:39:25;10.82;;;7.43;;
14760;SDS011;7472;45.396;5.272;2023-12-20T04:41:52;8.70;;;6.22;;
14760;SDS011;7472;45.396;5.272;2023-12-20T04:44:20;115.55;;;20.98;;
14760;SDS011;7472;45.396;5.272;2023-12-20T04:46:47;16.33;;;13.32;;
14760;SDS011;7472;45.396;5.272;2023-12-20T04:49:14;17.42;;;14.52;;
14760;SDS011;7472;45.396;5.272;2023-12-20T04:51:42;15.98;;;11.98;;
14760;SDS011;7472;45.396;5.272;2023-12-20T04:54:09;14.40;;;11.43;;
14760;SDS011;7472;45.396;5.272;2023-12-20T04:56:38;17.10;;;10.30;;
14760;SDS011;7472;45.396;5.272;2023-12-20T04:59:05;17.38;;;12.00;;
14760;SDS011;7472;45.396;5.272;2023-12-20T05:01:32;16.55;;;11.57;;
14760;SDS011;7472;45.396;5.272;2023-12-20T05:04:00;14.60;;;11.48;;
14760;SDS011;7472;45.396;5.272;2023-12-20T05:06:27;14.55;;;11.63;;
14760;SDS011;7472;45.396;5.272;2023-12-20T05:08:54;13.43;;;10.55;;
14760;SDS011;7472;45.396;5.272;2023-12-20T05:11:22;13.13;;;10.65;;
14760;SDS011;7472;45.396;5.272;2023-12-20T05:13:51;11.68;;;8.98;;
14760;SDS011;7472;45.396;5.272;2023-12-20T05:16:18;9.88;;;8.68;;
14760;SDS011;7472;45.396;5.272;2023-12-20T05:18:48;11.23;;;10.02;;
14760;SDS011;7472;45.396;5.272;2023-12-20T05:21:17;14.45;;;9.75;;
14760;SDS011;7472;45.396;5.272;2023-12-20T05:23:45;10.98;;;9.32;;
14760;SDS011;7472;45.396;5.272;2023-12-20T05:26:12;13.43;;;8.88;;
14760;SDS011;7472;45.396;5.272;2023-12-20T05:28:39;11.05;;;8.95;;
14760;SDS011;7472;45.396;5.272;2023-12-20T05:31:08;12.05;;;9.70;;
14760;SDS011;7472;45.396;5.272;2023-12-20T05:33:35;12.65;;;10.25;;
14760;SDS011;7472;45.396;5.272;2023-12-20T05:36:03;13.68;;;10.60;;
14760;SDS011;7472;45.396;5.272;2023-12-20T05:38:30;10.15;;;9.13;;
14760;SDS011;7472;45.396;5.272;2023-12-20T05:40:58;12.52;;;10.23;;
14760;SDS011;7472;45.396;5.272;2023-12-20T05:43:25;12.18;;;10.05;;
14760;SDS011;7472;45.396;5.272;2023-12-20T05:45:52;12.02;;;9.90;;
14760;SDS011;7472;45.396;5.272;2023-12-20T05:48:21;12.93;;;10.02;;
14760;SDS011;7472;45.396;5.272;2023-12-20T05:50:48;12.55;;;10.02;;
14760;SDS011;7472;45.396;5.272;2023-12-20T05:53:16;9.63;;;7.05;;
14760;SDS011;7472;45.396;5.272;2023-12-20T05:55:43;11.88;;;9.82;;
14760;SDS011;7472;45.396;5.272;2023-12-20T05:58:11;16.08;;;13.18;;
14760;SDS011;7472;45.396;5.272;2023-12-20T06:00:38;15.68;;;13.52;;
14760;SDS011;7472;45.396;5.272;2023-12-20T06:03:05;19.23;;;14.38;;
14760;SDS011;7472;45.396;5.272;2023-12-20T06:05:34;17.60;;;13.07;;
14760;SDS011;7472;45.396;5.272;2023-12-20T06:08:01;15.95;;;12.80;;
14760;SDS011;7472;45.396;5.272;2023-12-20T06:10:29;20.15;;;15.18;;
14760;SDS011;7472;45.396;5.272;2023-12-20T06:12:56;16.23;;;11.88;;
14760;SDS011;7472;45.396;5.272;2023-12-20T06:15:25;15.48;;;11.13;;
14760;SDS011;7472;45.396;5.272;2023-12-20T06:17:53;17.15;;;12.48;;
14760;SDS011;7472;45.396;5.272;2023-12-20T06:20:20;17.05;;;12.50;;
14760;SDS011;7472;45.396;5.272;2023-12-20T06:22:49;15.90;;;12.25;;
14760;SDS011;7472;45.396;5.272;2023-12-20T06:25:16;13.18;;;10.95;;
14760;SDS011;7472;45.396;5.272;2023-12-20T06:27:44;11.80;;;10.18;;
14760;SDS011;7472;45.396;5.272;2023-12-20T06:30:11;3.47;;;3.17;;
14760;SDS011;7472;45.396;5.272;2023-12-20T06:32:39;2.65;;;2.45;;
14760;SDS011;7472;45.396;5.272;2023-12-20T06:35:08;3.45;;;3.00;;
14760;SDS011;7472;45.396;5.272;2023-12-20T06:37:35;4.10;;;2.67;;
14760;SDS011;7472;45.396;5.272;2023-12-20T06:40:05;2.28;;;1.92;;
14760;SDS011;7472;45.396;5.272;2023-12-20T06:42:33;2.28;;;2.08;;
14760;SDS011;7472;45.396;5.272;2023-12-20T06:45:00;2.30;;;2.10;;
14760;SDS011;7472;45.396;5.272;2023-12-20T06:47:27;2.42;;;1.95;;
14760;SDS011;7472;45.396;5.272;2023-12-20T06:49:55;2.35;;;1.70;;
14760;SDS011;7472;45.396;5.272;2023-12-20T06:52:22;3.00;;;1.90;;
14760;SDS011;7472;45.396;5.272;2023-12-20T06:54:49;2.67;;;2.35;;
14760;SDS011;7472;45.396;5.272;2023-12-20T06:57:18;2.42;;;2.03;;
14760;SDS011;7472;45.396;5.272;2023-12-20T06:59:45;2.10;;;1.90;;
14760;SDS011;7472;45.396;5.272;2023-12-20T07:02:13;2.10;;;1.73;;
14760;SDS011;7472;45.396;5.272;2023-12-20T07:04:40;2.13;;;1.92;;
14760;SDS011;7472;45.396;5.272;2023-12-20T07:07:07;1.80;;;1.60;;
14760;SDS011;7472;45.396;5.272;2023-12-20T07:09:35;2.55;;;1.80;;
14760;SDS011;7472;45.396;5.272;2023-12-20T07:12:03;2.22;;;2.00;;
14760;SDS011;7472;45.396;5.272;2023-12-20T07:14:32;2.90;;;2.30;;
14760;SDS011;7472;45.396;5.272;2023-12-20T07:17:01;2.00;;;1.80;;
14760;SDS011;7472;45.396;5.272;2023-12-20T07:19:29;2.53;;;2.33;;
14760;SDS011;7472;45.396;5.272;2023-12-20T07:21:57;3.22;;;2.53;;
14760;SDS011;7472;45.396;5.272;2023-12-20T07:24:24;2.50;;;2.30;;
14760;SDS011;7472;45.396;5.272;2023-12-20T07:26:51;2.83;;;2.53;;
14760;SDS011;7472;45.396;5.272;2023-12-20T07:29:18;2.70;;;2.50;;
14760;SDS011;7472;45.396;5.272;2023-12-20T07:31:47;2.88;;;2.60;;
14760;SDS011;7472;45.396;5.272;2023-12-20T07:34:14;3.45;;;2.95;;
14760;SDS011;7472;45.396;5.272;2023-12-20T07:36:42;3.85;;;3.33;;
14760;SDS011;7472;45.396;5.272;2023-12-20T07:39:09;1.95;;;1.77;;
14760;SDS011;7472;45.396;5.272;2023-12-20T07:41:36;4.50;;;3.42;;
14760;SDS011;7472;45.396;5.272;2023-12-20T07:44:04;2.40;;;2.20;;
14760;SDS011;7472;45.396;5.272;2023-12-20T07:46:31;2.88;;;1.88;;
14760;SDS011;7472;45.396;5.272;2023-12-20T07:49:00;3.40;;;3.10;;
14760;SDS011;7472;45.396;5.272;2023-12-20T07:51:27;3.97;;;3.00;;
14760;SDS011;7472;45.396;5.272;2023-12-20T07:53:54;2.50;;;2.30;;
14760;SDS011;7472;45.396;5.272;2023-12-20T07:56:21;2.90;;;2.70;;
14760;SDS011;7472;45.396;5.272;2023-12-20T07:58:49;3.40;;;3.10;;
14760;SDS011;7472;45.396;5.272;2023-12-20T08:01:16;2.85;;;2.55;;
14760;SDS011;7472;45.396;5.272;2023-12-20T08:03:44;3.33;;;3.03;;
14760;SDS011;7472;45.396;5.272;2023-12-20T08:06:14;3.13;;;2.83;;
14760;SDS011;7472;45.396;5.272;2023-12-20T08:08:42;3.58;;;3.22;;
14760;SDS011;7472;45.396;5.272;2023-12-20T08:11:09;2.78;;;2.47;;
14760;SDS011;7472;45.396;5.272;2023-12-20T08:13:37;3.75;;;2.22;;
14760;SDS011;7472;45.396;5.272;2023-12-20T08:16:03;3.00;;;2.70;;
14760;SDS011;7472;45.396;5.272;2023-12-20T08:18:31;5.00;;;4.07;;
14760;SDS011;7472;45.396;5.272;2023-12-20T08:20:59;4.10;;;3.47;;
14760;SDS011;7472;45.396;5.272;2023-12-20T08:23:28;4.38;;;3.97;;
14760;SDS011;7472;45.396;5.272;2023-12-20T08:25:55;4.30;;;3.65;;
14760;SDS011;7472;45.396;5.272;2023-12-20T08:28:22;5.18;;;4.50;;
14760;SDS011;7472;45.396;5.272;2023-12-20T08:30:50;5.53;;;4.57;;
14760;SDS011;7472;45.396;5.272;2023-12-20T08:33:18;6.22;;;5.47;;
14760;SDS011;7472;45.396;5.272;2023-12-20T08:35:46;6.38;;;5.30;;
14760;SDS011;7472;45.396;5.272;2023-12-20T08:38:13;6.20;;;5.28;;
14760;SDS011;7472;45.396;5.272;2023-12-20T08:40:43;8.82;;;6.20;;
14760;SDS011;7472;45.396;5.272;2023-12-20T08:43:10;7.80;;;6.72;;
14760;SDS011;7472;45.396;5.272;2023-12-20T08:45:38;6.97;;;5.32;;
14760;SDS011;7472;45.396;5.272;2023-12-20T08:48:05;8.73;;;6.72;;
14760;SDS011;7472;45.396;5.272;2023-12-20T08:50:33;9.95;;;7.90;;
14760;SDS011;7472;45.396;5.272;2023-12-20T08:53:01;8.18;;;5.57;;
14760;SDS011;7472;45.396;5.272;2023-12-20T08:55:29;9.25;;;8.10;;
14760;SDS011;7472;45.396;5.272;2023-12-20T08:57:58;11.15;;;8.68;;
14760;SDS011;7472;45.396;5.272;2023-12-20T09:00:25;10.13;;;8.05;;
14760;SDS011;7472;45.396;5.272;2023-12-20T09:02:53;11.05;;;8.77;;
14760;SDS011;7472;45.396;5.272;2023-12-20T09:05:20;10.27;;;6.97;;
14760;SDS011;7472;45.396;5.272;2023-12-20T09:07:47;11.35;;;9.13;;
14760;SDS011;7472;45.396;5.272;2023-12-20T09:10:15;11.68;;;8.95;;
14760;SDS011;7472;45.396;5.272;2023-12-20T09:12:47;10.15;;;7.88;;
14760;SDS011;7472;45.396;5.272;2023-12-20T09:15:15;10.00;;;8.57;;
14760;SDS011;7472;45.396;5.272;2023-12-20T09:17:43;7.18;;;6.15;;
14760;SDS011;7472;45.396;5.272;2023-12-20T09:20:10;11.40;;;9.15;;
14760;SDS011;7472;45.396;5.272;2023-12-20T09:22:38;12.18;;;9.48;;
14760;SDS011;7472;45.396;5.272;2023-12-20T09:25:07;10.45;;;8.35;;
14760;SDS011;7472;45.396;5.272;2023-12-20T09:27:35;9.02;;;7.50;;
14760;SDS011;7472;45.396;5.272;2023-12-20T09:30:03;11.93;;;9.27;;
14760;SDS011;7472;45.396;5.272;2023-12-20T09:32:31;12.98;;;9.70;;
14760;SDS011;7472;45.396;5.272;2023-12-20T09:34:59;11.85;;;9.45;;
14760;SDS011;7472;45.396;5.272;2023-12-20T09:37:26;7.22;;;5.57;;
14760;SDS011;7472;45.396;5.272;2023-12-20T09:39:54;12.75;;;9.25;;
14760;SDS011;7472;45.396;5.272;2023-12-20T09:42:23;10.77;;;8.60;;
14760;SDS011;7472;45.396;5.272;2023-12-20T09:44:51;11.80;;;9.75;;
14760;SDS011;7472;45.396;5.272;2023-12-20T09:47:19;12.82;;;10.70;;
14760;SDS011;7472;45.396;5.272;2023-12-20T09:49:48;14.50;;;11.05;;
14760;SDS011;7472;45.396;5.272;2023-12-20T09:52:16;14.40;;;10.52;;
14760;SDS011;7472;45.396;5.272;2023-12-20T09:54:45;13.15;;;10.43;;
14760;SDS011;7472;45.396;5.272;2023-12-20T09:57:15;13.70;;;10.48;;
14760;SDS011;7472;45.396;5.272;2023-12-20T09:59:42;13.55;;;10.93;;
14760;SDS011;7472;45.396;5.272;2023-12-20T10:02:11;15.50;;;11.75;;
14760;SDS011;7472;45.396;5.272;2023-12-20T10:04:40;9.85;;;8.30;;
14760;SDS011;7472;45.396;5.272;2023-12-20T10:07:11;11.90;;;8.07;;
14760;SDS011;7472;45.396;5.272;2023-12-20T10:09:38;12.98;;;9.45;;
14760;SDS011;7472;45.396;5.272;2023-12-20T10:12:06;12.00;;;8.90;;
14760;SDS011;7472;45.396;5.272;2023-12-20T10:14:33;15.05;;;11.45;;
14760;SDS011;7472;45.396;5.272;2023-12-20T10:17:04;10.20;;;6.68;;
14760;SDS011;7472;45.396;5.272;2023-12-20T10:19:32;12.05;;;10.13;;
14760;SDS011;7472;45.396;5.272;2023-12-20T10:21:59;9.07;;;6.78;;
14760;SDS011;7472;45.396;5.272;2023-12-20T10:24:29;11.30;;;9.77;;
14760;SDS011;7472;45.396;5.272;2023-12-20T10:27:03;10.57;;;8.00;;
14760;SDS011;7472;45.396;5.272;2023-12-20T10:29:31;11.20;;;6.95;;
14760;SDS011;7472;45.396;5.272;2023-12-20T10:31:59;12.10;;;10.60;;
14760;SDS011;7472;45.396;5.272;2023-12-20T10:34:26;10.48;;;9.38;;
14760;SDS011;7472;45.396;5.272;2023-12-20T10:36:54;10.88;;;9.35;;
14760;SDS011;7472;45.396;5.272;2023-12-20T10:39:21;12.25;;;10.02;;
14760;SDS011;7472;45.396;5.272;2023-12-20T10:41:50;9.68;;;8.68;;
14760;SDS011;7472;45.396;5.272;2023-12-20T10:44:18;11.18;;;9.25;;
14760;SDS011;7472;45.396;5.272;2023-12-20T10:46:45;8.88;;;7.90;;
14760;SDS011;7472;45.396;5.272;2023-12-20T10:49:16;8.70;;;7.47;;
14760;SDS011;7472;45.396;5.272;2023-12-20T10:51:44;8.82;;;7.22;;
14760;SDS011;7472;45.396;5.272;2023-12-20T10:54:13;8.35;;;6.80;;
14760;SDS011;7472;45.396;5.272;2023-12-20T10:56:40;6.70;;;5.57;;
14760;SDS011;7472;45.396;5.272;2023-12-20T10:59:09;10.18;;;7.72;;
14760;SDS011;7472;45.396;5.272;2023-12-20T11:01:38;11.82;;;9.88;;
14760;SDS011;7472;45.396;5.272;2023-12-20T11:04:08;12.55;;;9.52;;
14760;SDS011;7472;45.396;5.272;2023-12-20T11:06:40;9.70;;;8.70;;
14760;SDS011;7472;45.396;5.272;2023-12-20T11:09:12;10.00;;;7.95;;
14760;SDS011;7472;45.396;5.272;2023-12-20T11:11:45;8.10;;;7.30;;
14760;SDS011;7472;45.396;5.272;2023-12-20T11:14:19;8.65;;;7.47;;
14760;SDS011;7472;45.396;5.272;2023-12-20T11:16:47;8.07;;;7.28;;
14760;SDS011;7472;45.396;5.272;2023-12-20T11:19:14;7.60;;;6.47;;
14760;SDS011;7472;45.396;5.272;2023-12-20T11:21:41;8.95;;;7.95;;
14760;SDS011;7472;45.396;5.272;2023-12-20T11:24:09;9.48;;;7.80;;
14760;SDS011;7472;45.396;5.272;2023-12-20T11:26:37;9.52;;;7.65;;
14760;SDS011;7472;45.396;5.272;2023-12-20T11:31:51;8.20;;;6.63;;
14760;SDS011;7472;45.396;5.272;2023-12-20T11:34:21;9.60;;;6.68;;
14760;SDS011;7472;45.396;5.272;2023-12-20T11:36:48;10.30;;;8.05;;
14760;SDS011;7472;45.396;5.272;2023-12-20T11:39:23;9.05;;;8.10;;
14760;SDS011;7472;45.396;5.272;2023-12-20T11:41:53;9.73;;;8.73;;
14760;SDS011;7472;45.396;5.272;2023-12-20T11:44:21;8.15;;;6.03;;
14760;SDS011;7472;45.396;5.272;2023-12-20T11:46:48;9.43;;;7.07;;
14760;SDS011;7472;45.396;5.272;2023-12-20T11:49:17;8.90;;;7.88;;
14760;SDS011;7472;45.396;5.272;2023-12-20T11:51:45;6.80;;;5.38;;
14760;SDS011;7472;45.396;5.272;2023-12-20T11:54:12;9.20;;;7.63;;
14760;SDS011;7472;45.396;5.272;2023-12-20T11:56:40;9.63;;;8.15;;
14760;SDS011;7472;45.396;5.272;2023-12-20T11:59:08;10.90;;;9.52;;
14760;SDS011;7472;45.396;5.272;2023-12-20T12:01:36;10.43;;;9.20;;
14760;SDS011;7472;45.396;5.272;2023-12-20T12:04:03;13.48;;;10.65;;
14760;SDS011;7472;45.396;5.272;2023-12-20T12:06:32;10.15;;;8.57;;
14760;SDS011;7472;45.396;5.272;2023-12-20T12:09:00;10.52;;;9.07;;
14760;SDS011;7472;45.396;5.272;2023-12-20T12:11:29;10.15;;;9.00;;
14760;SDS011;7472;45.396;5.272;2023-12-20T12:13:56;10.23;;;8.85;;
14760;SDS011;7472;45.396;5.272;2023-12-20T12:16:23;8.75;;;7.85;;
14760;SDS011;7472;45.396;5.272;2023-12-20T12:18:55;6.50;;;5.60;;
14760;SDS011;7472;45.396;5.272;2023-12-20T12:21:22;6.68;;;5.97;;
14760;SDS011;7472;45.396;5.272;2023-12-20T12:23:51;7.00;;;5.60;;
14760;SDS011;7472;45.396;5.272;2023-12-20T12:26:19;7.85;;;6.40;;
14760;SDS011;7472;45.396;5.272;2023-12-20T12:28:46;6.35;;;5.72;;
14760;SDS011;7472;45.396;5.272;2023-12-20T12:31:13;6.80;;;5.60;;
14760;SDS011;7472;45.396;5.272;2023-12-20T12:33:42;7.43;;;6.05;;
14760;SDS011;7472;45.396;5.272;2023-12-20T12:36:10;11.32;;;4.80;;
14760;SDS011;7472;45.396;5.272;2023-12-20T12:38:37;7.55;;;5.07;;
14760;SDS011;7472;45.396;5.272;2023-12-20T12:41:06;8.30;;;6.15;;
14760;SDS011;7472;45.396;5.272;2023-12-20T12:43:35;5.28;;;4.57;;
14760;SDS011;7472;45.396;5.272;2023-12-20T12:46:02;6.95;;;5.35;;
14760;SDS011;7472;45.396;5.272;2023-12-20T12:48:29;7.00;;;5.50;;
14760;SDS011;7472;45.396;5.272;2023-12-20T12:50:57;6.43;;;5.75;;
14760;SDS011;7472;45.396;5.272;2023-12-20T12:53:25;6.38;;;4.60;;
14760;SDS011;7472;45.396;5.272;2023-12-20T12:55:53;5.28;;;4.65;;
14760;SDS011;7472;45.396;5.272;2023-12-20T12:58:22;7.20;;;4.85;;
14760;SDS011;7472;45.396;5.272;2023-12-20T13:00:50;5.90;;;4.47;;
14760;SDS011;7472;45.396;5.272;2023-12-20T13:03:17;6.20;;;3.95;;
14760;SDS011;7472;45.396;5.272;2023-12-20T13:05:45;4.28;;;2.80;;
14760;SDS011;7472;45.396;5.272;2023-12-20T13:08:15;7.15;;;3.47;;
14760;SDS011;7472;45.396;5.272;2023-12-20T13:10:44;4.65;;;2.97;;
14760;SDS011;7472;45.396;5.272;2023-12-20T13:13:11;4.38;;;3.47;;
14760;SDS011;7472;45.396;5.272;2023-12-20T13:15:40;4.22;;;3.30;;
14760;SDS011;7472;45.396;5.272;2023-12-20T13:18:13;7.00;;;3.05;;
14760;SDS011;7472;45.396;5.272;2023-12-20T13:20:40;5.57;;;3.15;;
14760;SDS011;7472;45.396;5.272;2023-12-20T13:23:08;4.57;;;3.42;;
14760;SDS011;7472;45.396;5.272;2023-12-20T13:25:35;2.83;;;2.55;;
14760;SDS011;7472;45.396;5.272;2023-12-20T13:28:03;9.88;;;3.95;;
14760;SDS011;7472;45.396;5.272;2023-12-20T13:30:30;5.43;;;3.78;;
14760;SDS011;7472;45.396;5.272;2023-12-20T13:32:59;5.18;;;3.92;;
14760;SDS011;7472;45.396;5.272;2023-12-20T13:35:26;5.93;;;4.30;;
14760;SDS011;7472;45.396;5.272;2023-12-20T13:37:53;9.00;;;4.90;;
14760;SDS011;7472;45.396;5.272;2023-12-20T13:40:21;4.43;;;3.33;;
14760;SDS011;7472;45.396;5.272;2023-12-20T13:42:48;6.43;;;4.30;;
14760;SDS011;7472;45.396;5.272;2023-12-20T13:45:16;5.30;;;3.60;;
14760;SDS011;7472;45.396;5.272;2023-12-20T13:47:43;7.03;;;5.15;;
14760;SDS011;7472;45.396;5.272;2023-12-20T13:50:12;6.00;;;4.35;;
14760;SDS011;7472;45.396;5.272;2023-12-20T13:52:40;6.70;;;4.50;;
14760;SDS011;7472;45.396;5.272;2023-12-20T13:55:07;6.18;;;4.25;;
14760;SDS011;7472;45.396;5.272;2023-12-20T13:57:35;6.20;;;4.15;;
14760;SDS011;7472;45.396;5.272;2023-12-20T14:00:05;6.78;;;4.55;;
14760;SDS011;7472;45.396;5.272;2023-12-20T14:02:39;6.97;;;4.10;;
14760;SDS011;7472;45.396;5.272;2023-12-20T14:05:07;5.40;;;3.50;;
14760;SDS011;7472;45.396;5.272;2023-12-20T14:07:36;5.93;;;3.70;;
14760;SDS011;7472;45.396;5.272;2023-12-20T14:10:04;5.63;;;3.13;;
14760;SDS011;7472;45.396;5.272;2023-12-20T14:12:32;6.30;;;3.45;;
14760;SDS011;7472;45.396;5.272;2023-12-20T14:15:01;5.70;;;3.55;;
14760;SDS011;7472;45.396;5.272;2023-12-20T14:17:29;4.40;;;3.13;;
14760;SDS011;7472;45.396;5.272;2023-12-20T14:19:57;6.30;;;3.20;;
14760;SDS011;7472;45.396;5.272;2023-12-20T14:22:24;6.85;;;4.00;;
14760;SDS011;7472;45.396;5.272;2023-12-20T14:24:53;4.22;;;3.47;;
14760;SDS011;7472;45.396;5.272;2023-12-20T14:27:22;7.43;;;2.70;;
14760;SDS011;7472;45.396;5.272;2023-12-20T14:29:52;5.75;;;3.17;;
14760;SDS011;7472;45.396;5.272;2023-12-20T14:32:20;7.63;;;4.03;;
14760;SDS011;7472;45.396;5.272;2023-12-20T14:34:47;5.35;;;3.33;;
14760;SDS011;7472;45.396;5.272;2023-12-20T14:37:14;5.82;;;4.28;;
14760;SDS011;7472;45.396;5.272;2023-12-20T14:39:42;6.45;;;4.22;;
14760;SDS011;7472;45.396;5.272;2023-12-20T14:42:11;4.95;;;4.15;;
14760;SDS011;7472;45.396;5.272;2023-12-20T14:44:39;8.50;;;5.68;;
14760;SDS011;7472;45.396;5.272;2023-12-20T14:47:07;4.95;;;3.58;;
14760;SDS011;7472;45.396;5.272;2023-12-20T14:49:34;9.88;;;5.38;;
14760;SDS011;7472;45.396;5.272;2023-12-20T14:52:02;9.40;;;4.95;;
14760;SDS011;7472;45.396;5.272;2023-12-20T14:54:30;11.52;;;4.32;;
14760;SDS011;7472;45.396;5.272;2023-12-20T14:56:57;4.88;;;3.67;;
14760;SDS011;7472;45.396;5.272;2023-12-20T14:59:26;5.97;;;3.65;;